Flugplatz Schleswig Airport

Bericht für ETNS

vom 20.10. um 18:20 UTC

Wind 2 kt aus 110°

Sichtweite 4300 m

Temperatur 11.0°C

Taupunkt 10.0°C

Luftfeuchtigkeit 94%

Luftdruck 1012 hPa

ETNS 201820Z AUTO 11002KT 4300 // ////// 11/10 Q1012 ///
Keine Prognose (TAF) verfügbar.
Impressum